Saturday, August 23, 2014
05:39 UTC
  |  Log In   |  Register Free
Airport Search:

Okmulgee Regional Airport
(KOKM)

Okmulgee Regional Airport Diagram
No Airport Diagram Available

FAA data valid effective July 24, 2014 until September 18, 2014 (unless otherwise noted).

 
 
 
 
 
 
 
 
 
 
 
 
 
 

Current Aviation Weather for Okmulgee Regional Airport (KOKM)

The most recent METAR observation for KOKM was updated at: 1835 UTC
METAR Summary (Translated METAR)
KOKM
281835Z AUTO 01008G16KT 310V030 10SM CLR 29/15 A3020 RMK AO2 T02860147
KRVS
(22.4 nm NW from KOKM)
281853Z VRB06KT 10SM CLR 29/16 A3020 RMK AO2 SLP229 T02940156
TAF Summary (Translated TAF)
KRVS
(22.4 nm NW from KOKM)
221722Z 2218/2318 19011KT P6SM SKC FM230100 VRB03KT P6SM SCT250 FM231500 20010KT P6SM SKC
  Airport Weather Conditions for KOKM

 Current Weather at OKM
79° F
Fair
North winds at 0.0 mph
OKM NOAA Radar

Pressure: 29.94 in
Humidity: 74%
Wind: Calm
Dew Point: 70.0°F
Visibility: 10.00 mi


Airport Weather Forecast for KOKM

Translated METAR and TAF for KOKM
Translated METAR for KOKM (0533 UTC 23 August 2014)
found at http://aviationweather.gov/adds/metars/
 
METAR text: KOKM 230515Z AUTO 14003KT 10SM CLR 25/21 A2995 RMK AO2 T02510211
Conditions at: KOKM (OKMULGEE , OK, US) observed 0515 UTC 23 August 2014
Temperature: 25.1°C (77°F)
Dewpoint: 21.1°C (70°F) [RH = 79%]
Pressure (altimeter): 29.95 inches Hg (1014.3 mb)
Winds: from the SE (140 degrees) at 3 MPH (3 knots; 1.6 m/s)
Visibility: 10 or more miles (16+ km)
Ceiling: at least 12,000 feet AGL
Clouds: sky clear below 12,000 feet AGL
Weather: automated observation with no human augmentation;
there may or may not be significant weather present at this time
Translated TAF for KOKM

There is no translated TAF available for this airport

Find All Airport Services Find A Hotel Find A Rental Car Find A Golf Course Find A Restaurant $100 Hamburger



FBO's on the Field
FBO Company Facility Photos Services Transportation Aviation Fuel Prices: Prices include tax
Catering Weather Repair Courtesy Rental Type 100LL JetA JetA+ MOGAS 8087
 
Okmulgee Regional Airport

This FBO has not yet been rated
FS:Phillips66
Last Updated: Aug-07
Login to update fuel prices
SS:
Contact Okmulgee Regional AirportMore FBO Information
 
Add another FBO Facility Photos Catering Weather Repair Courtesy Rental Type 100LL JetA JetA+ MOGAS 8087
Services Transportation Aviation Fuel Prices: Prices include tax


GlobalAir.com Airport Resource Center model-print
model-print
model-print
model-print